Time;durP1;ratioP1;P1;durP2;ratioP2;P2;SDS_P1;SDS_P2;PMS_P1;PMS_P2;Temp;Humidity;BMP_temperature;BMP_pressure;BME280_temperature;BME280_humidity;BME280_pressure;Samples;Min_cycle;Max_cycle;Signal;HPM_P1;HPM_P2
2022/01/01 00:00:11;;;;;;;12.63;4.83;;;12.00;99.90;12.00;100872.00;;;;5015501;27;86974;-72
2022/01/01 00:02:37;;;;;;;23.63;14.57;;;12.00;99.90;12.00;100872.00;;;;5036020;27;88011;-72
2022/01/01 00:05:05;;;;;;;8.27;5.40;;;12.00;99.90;12.00;100880.00;;;;5036126;27;89804;-70
2022/01/01 00:07:30;;;;;;;8.50;5.80;;;12.00;99.90;12.00;100885.00;;;;5034835;27;93719;-74
2022/01/01 00:09:56;;;;;;;5.57;3.83;;;12.00;99.90;11.90;100885.00;;;;5036633;27;87698;-71
2022/01/01 00:12:22;;;;;;;6.47;4.57;;;12.00;99.90;11.90;100875.00;;;;5008687;27;118713;-72
2022/01/01 00:14:47;;;;;;;7.47;4.57;;;11.90;99.90;11.90;100883.00;;;;5026853;27;116160;-73
2022/01/01 00:17:13;;;;;;;6.93;3.63;;;11.90;99.90;11.80;100880.00;;;;5036043;27;87663;-72
2022/01/01 00:19:39;;;;;;;3.83;3.20;;;11.90;99.90;11.80;100872.00;;;;5016591;27;106872;-71
2022/01/01 00:22:07;;;;;;;4.00;3.37;;;11.90;99.90;11.80;100871.00;;;;5033278;27;116594;-73
2022/01/01 00:24:34;;;;;;;7.63;3.23;;;11.90;99.90;11.80;100878.00;;;;5012391;27;89413;-74
2022/01/01 00:27:00;;;;;;;6.03;3.10;;;11.90;99.90;11.80;100878.00;;;;5014466;27;87996;-73
2022/01/01 00:29:27;;;;;;;6.63;3.03;;;11.90;99.90;11.80;100875.00;;;;5036263;27;87712;-73
2022/01/01 00:31:52;;;;;;;4.37;3.53;;;11.90;99.90;11.80;100892.00;;;;5035679;27;88946;-71
2022/01/01 00:34:18;;;;;;;5.57;3.03;;;11.80;99.90;11.80;100888.00;;;;5026232;27;115639;-70
2022/01/01 00:36:44;;;;;;;6.07;3.27;;;11.80;99.90;11.80;100885.00;;;;5035439;27;104661;-70
2022/01/01 00:39:10;;;;;;;4.27;2.70;;;11.80;99.90;11.80;100886.00;;;;5034631;27;109292;-69
2022/01/01 00:41:35;;;;;;;6.63;2.90;;;11.80;99.90;11.90;100888.00;;;;5036177;27;91759;-69
2022/01/01 00:44:01;;;;;;;5.47;3.27;;;11.90;99.90;11.80;100889.00;;;;5018302;27;101905;-69
2022/01/01 00:46:27;;;;;;;3.87;3.03;;;11.80;99.90;11.80;100892.00;;;;5036033;27;87870;-69
2022/01/01 00:48:53;;;;;;;3.73;2.87;;;11.80;99.90;11.90;100894.00;;;;5035112;27;107784;-70
2022/01/01 00:51:23;;;;;;;5.10;3.80;;;11.90;99.90;11.80;100897.00;;;;5035974;27;88842;-71
2022/01/01 00:53:49;;;;;;;4.73;3.57;;;11.80;99.90;11.80;100896.00;;;;5018514;27;88304;-73
2022/01/01 00:56:16;;;;;;;4.33;3.33;;;11.80;99.90;11.80;100906.00;;;;5035070;27;88807;-75
2022/01/01 00:58:42;;;;;;;4.57;3.87;;;11.80;99.90;11.80;100908.00;;;;5034866;27;95663;-73
2022/01/01 01:01:08;;;;;;;6.37;3.80;;;11.80;99.90;11.80;100916.00;;;;5035075;27;117936;-75
2022/01/01 01:03:34;;;;;;;8.13;4.10;;;11.80;99.90;11.80;100903.00;;;;5026126;27;88505;-73
2022/01/01 01:06:00;;;;;;;5.40;4.03;;;11.80;99.90;11.80;100916.00;;;;5016500;27;87904;-75
2022/01/01 01:08:27;;;;;;;5.03;3.87;;;11.80;99.90;11.80;100926.00;;;;5034798;27;87874;-73
2022/01/01 01:10:56;;;;;;;5.17;4.00;;;11.80;99.90;11.80;100912.00;;;;5016756;27;88565;-73
2022/01/01 01:13:22;;;;;;;5.63;4.30;;;11.80;99.90;11.80;100922.00;;;;5004212;27;87821;-73
2022/01/01 01:15:48;;;;;;;7.30;4.47;;;11.80;99.90;11.80;100925.00;;;;5012959;27;88085;-73
2022/01/01 01:18:14;;;;;;;8.27;5.00;;;11.80;99.90;11.80;100921.00;;;;5014521;27;94796;-73
2022/01/01 01:20:41;;;;;;;8.30;5.50;;;11.80;99.90;11.80;100933.00;;;;5029357;27;89293;-73
2022/01/01 01:23:07;;;;;;;6.70;4.83;;;11.80;99.90;11.80;100938.00;;;;5018953;27;89106;-73
2022/01/01 01:25:39;;;;;;;7.97;4.03;;;11.80;99.90;11.80;100934.00;;;;5036006;27;87699;-73
2022/01/01 01:28:08;;;;;;;7.00;5.60;;;11.80;99.90;11.80;100942.00;;;;5035048;27;87770;-73
2022/01/01 01:30:35;;;;;;;10.17;6.83;;;11.90;99.90;11.80;100936.00;;;;5034595;27;88998;-72
2022/01/01 01:33:02;;;;;;;10.87;6.00;;;11.80;99.90;11.80;100940.00;;;;5035607;27;87635;-73
2022/01/01 01:35:27;;;;;;;8.13;5.77;;;11.80;99.90;11.80;100940.00;;;;5019172;27;92439;-71
2022/01/01 01:37:53;;;;;;;12.80;7.40;;;11.80;99.90;11.80;100944.00;;;;5037884;27;100904;-71
2022/01/01 01:40:19;;;;;;;9.27;6.40;;;11.90;99.90;11.80;100945.00;;;;5038957;27;88531;-72
2022/01/01 01:42:45;;;;;;;10.00;6.70;;;11.80;99.90;11.90;100960.00;;;;5038287;27;95796;-72
2022/01/01 01:45:16;;;;;;;11.40;6.60;;;11.80;99.90;11.90;100950.00;;;;5029656;27;88596;-72
2022/01/01 01:47:45;;;;;;;8.90;7.00;;;11.90;99.90;11.90;100946.00;;;;5003991;27;88028;-71
2022/01/01 01:50:14;;;;;;;14.27;7.37;;;11.90;99.90;11.90;100948.00;;;;5038480;27;101884;-71
2022/01/01 01:52:44;;;;;;;13.23;7.47;;;11.90;99.90;11.90;100948.00;;;;5038634;27;87821;-70
2022/01/01 01:55:11;;;;;;;10.67;6.90;;;11.90;99.90;11.90;100953.00;;;;5022182;27;87690;-70
2022/01/01 01:57:41;;;;;;;10.27;6.40;;;11.90;99.90;11.90;100944.00;;;;5039211;27;87597;-70
2022/01/01 02:00:51;;;;;;;11.00;6.60;;;12.00;99.90;12.00;100945.00;;;;5038916;27;88118;-69
2022/01/01 02:03:11;;;;;;;13.87;6.67;;;12.00;99.90;12.00;100960.00;;;;5023291;27;87139;-69
2022/01/01 02:05:39;;;;;;;11.07;6.03;;;12.00;99.90;12.00;100956.00;;;;5030088;27;87985;-69
2022/01/01 02:08:06;;;;;;;10.53;6.43;;;12.00;99.90;12.00;100957.00;;;;5039021;27;87890;-69
2022/01/01 02:10:34;;;;;;;11.73;5.93;;;12.00;99.90;12.10;100960.00;;;;5037757;27;89666;-70
2022/01/01 02:13:09;;;;;;;11.20;6.60;;;12.00;99.90;12.10;100967.00;;;;5037358;27;89806;-71
2022/01/01 02:15:59;;;;;;;8.67;5.23;;;12.10;99.90;12.10;100959.00;;;;5030095;27;87927;-71
2022/01/01 02:18:23;;;;;;;12.83;6.23;;;12.10;99.90;12.10;100964.00;;;;5037518;27;88060;-72
2022/01/01 02:20:50;;;;;;;12.13;5.37;;;12.10;99.90;12.20;100952.00;;;;5036793;27;118510;-72
2022/01/01 02:23:27;;;;;;;6.87;4.47;;;12.10;99.90;12.20;100960.00;;;;5038214;27;88191;-71
2022/01/01 02:25:56;;;;;;;7.83;5.23;;;12.10;99.90;12.20;100964.00;;;;5007471;27;87707;-70
2022/01/01 02:28:23;;;;;;;8.77;4.50;;;12.20;99.90;12.30;100976.00;;;;5016338;27;87228;-70
2022/01/01 02:30:52;;;;;;;5.77;4.23;;;12.20;99.90;12.30;100973.00;;;;5033305;27;94256;-70
2022/01/01 02:33:19;;;;;;;6.47;4.27;;;12.20;99.90;12.30;100968.00;;;;5018906;27;88111;-69
2022/01/01 02:35:45;;;;;;;4.27;3.37;;;12.30;99.90;12.30;100972.00;;;;5029101;27;88804;-70
2022/01/01 02:38:12;;;;;;;7.57;4.63;;;12.40;99.90;12.40;100986.00;;;;5036821;27;107581;-69
2022/01/01 02:40:38;;;;;;;6.17;4.07;;;12.30;99.90;12.40;100988.00;;;;5038199;27;88339;-69
2022/01/01 02:43:04;;;;;;;8.00;4.43;;;12.40;99.90;12.40;100998.00;;;;5036968;27;117994;-68
2022/01/01 02:45:30;;;;;;;5.33;3.93;;;12.40;99.90;12.40;100998.00;;;;5029245;27;87953;-69
2022/01/01 02:47:56;;;;;;;6.30;4.07;;;12.40;99.90;12.40;100992.00;;;;5037021;27;87460;-69
2022/01/01 02:50:22;;;;;;;6.13;4.53;;;12.40;99.90;12.40;101006.00;;;;5017725;27;117288;-71
2022/01/01 02:52:48;;;;;;;4.17;3.77;;;12.50;99.90;12.40;101010.00;;;;4999613;27;116250;-69
2022/01/01 02:55:13;;;;;;;6.73;3.67;;;12.40;99.90;12.30;101004.00;;;;5028414;27;110540;-71
2022/01/01 02:57:39;;;;;;;4.67;4.17;;;12.30;99.90;12.20;100996.00;;;;5036378;27;108866;-71
2022/01/01 03:00:07;;;;;;;5.07;3.80;;;12.30;99.90;12.10;101006.00;;;;5036019;27;119589;-70
2022/01/01 03:02:32;;;;;;;4.63;3.60;;;12.20;99.90;12.10;101003.00;;;;5018416;27;88266;-71
2022/01/01 03:04:58;;;;;;;6.37;4.00;;;12.10;99.90;12.00;101020.00;;;;5021096;27;87845;-69
2022/01/01 03:07:24;;;;;;;6.67;3.90;;;12.10;99.90;12.00;101013.00;;;;5036642;27;108898;-72
2022/01/01 03:09:49;;;;;;;6.97;3.60;;;12.40;99.90;12.00;101024.00;;;;5036649;27;114688;-71
2022/01/01 03:12:16;;;;;;;5.70;4.00;;;12.00;99.90;12.00;101029.00;;;;5036344;27;117302;-71
2022/01/01 03:14:42;;;;;;;4.90;3.33;;;12.00;99.90;12.00;101016.00;;;;5024120;27;88043;-70
2022/01/01 03:17:09;;;;;;;5.77;3.70;;;12.00;99.90;12.00;101021.00;;;;5015991;27;87000;-69
2022/01/01 03:19:36;;;;;;;6.13;4.03;;;12.00;99.90;12.00;101015.00;;;;5037252;27;89219;-69
2022/01/01 03:22:03;;;;;;;8.30;4.20;;;12.00;99.90;12.00;101021.00;;;;5036939;27;103959;-70
2022/01/01 03:24:28;;;;;;;5.93;4.00;;;12.00;99.90;12.00;101023.00;;;;5026813;27;88828;-70
2022/01/01 03:26:54;;;;;;;8.77;3.07;;;12.00;99.90;12.00;101018.00;;;;5021132;27;109064;-70
2022/01/01 03:29:20;;;;;;;5.17;3.67;;;12.00;99.90;12.00;101010.00;;;;5036371;27;89284;-71
2022/01/01 03:31:46;;;;;;;5.80;3.80;;;12.00;99.90;12.00;101014.00;;;;5036204;27;117413;-70
2022/01/01 03:34:11;;;;;;;3.27;2.80;;;12.00;99.90;12.10;101013.00;;;;5015146;27;93236;-70
2022/01/01 03:36:38;;;;;;;4.87;3.43;;;12.10;99.90;12.10;101013.00;;;;5030480;27;110029;-71
2022/01/01 03:39:05;;;;;;;4.83;3.53;;;12.10;99.90;12.10;101010.00;;;;5036289;27;88371;-70
2022/01/01 03:41:30;;;;;;;3.87;3.07;;;12.10;99.90;12.10;101005.00;;;;5018271;27;88842;-71
2022/01/01 03:43:56;;;;;;;4.07;2.67;;;12.10;99.90;12.10;101021.00;;;;5035218;27;108767;-71
2022/01/01 03:46:22;;;;;;;3.83;2.97;;;12.10;99.90;12.20;101006.00;;;;5028309;27;109622;-73
2022/01/01 03:48:47;;;;;;;5.83;3.20;;;12.20;99.90;12.20;101011.00;;;;5017094;27;90654;-72
2022/01/01 03:51:13;;;;;;;3.73;3.37;;;12.20;99.90;12.20;101018.00;;;;5016620;27;118498;-72
2022/01/01 03:53:39;;;;;;;2.90;2.60;;;12.20;99.90;12.30;101018.00;;;;5017819;27;88178;-71
2022/01/01 03:56:05;;;;;;;3.37;2.70;;;12.30;99.90;12.30;101017.00;;;;5019507;27;108934;-72
2022/01/01 03:58:30;;;;;;;4.00;3.10;;;12.30;99.90;12.30;101034.00;;;;5035582;27;88153;-72
2022/01/01 04:00:56;;;;;;;4.80;3.07;;;12.30;99.90;12.40;101039.00;;;;5035002;27;114542;-72
2022/01/01 04:03:22;;;;;;;4.33;2.27;;;12.30;99.90;12.40;101038.00;;;;5019595;27;109930;-73
2022/01/01 04:05:47;;;;;;;3.07;2.57;;;12.40;99.90;12.40;101031.00;;;;5036133;27;107807;-73
2022/01/01 04:08:14;;;;;;;4.13;2.77;;;12.40;99.90;12.40;101038.00;;;;5035257;27;118742;-72
2022/01/01 04:10:40;;;;;;;5.73;3.27;;;12.40;99.90;12.50;101030.00;;;;5036035;27;104045;-73
2022/01/01 04:13:09;;;;;;;5.70;2.43;;;12.40;99.90;12.50;101031.00;;;;5017658;27;110055;-74
2022/01/01 04:15:36;;;;;;;6.83;2.90;;;12.50;99.90;12.50;101026.00;;;;5018516;27;88040;-73
2022/01/01 04:18:09;;;;;;;4.70;2.73;;;12.50;99.90;12.50;101020.00;;;;5035737;27;88072;-72
2022/01/01 04:20:35;;;;;;;3.60;2.53;;;12.50;99.90;12.50;101034.00;;;;5036753;27;88230;-73
2022/01/01 04:23:01;;;;;;;3.97;3.07;;;12.50;99.90;12.50;101034.00;;;;5018761;27;87835;-72
2022/01/01 04:25:28;;;;;;;5.63;2.97;;;12.50;99.90;12.60;101037.00;;;;5017969;27;87710;-72
2022/01/01 04:27:56;;;;;;;3.37;2.47;;;12.50;99.90;12.60;101034.00;;;;5034810;27;88775;-71
2022/01/01 04:30:22;;;;;;;2.60;2.27;;;12.50;99.90;12.60;101042.00;;;;5036749;27;88319;-71
2022/01/01 04:32:49;;;;;;;4.03;2.53;;;12.60;99.90;12.60;101030.00;;;;5019018;27;89715;-72
2022/01/01 04:35:15;;;;;;;3.03;2.30;;;12.60;99.90;12.60;101034.00;;;;5017109;27;87808;-71
2022/01/01 04:37:41;;;;;;;4.10;2.27;;;12.60;99.90;12.50;101041.00;;;;4999101;27;90330;-72
2022/01/01 04:40:09;;;;;;;3.40;2.60;;;12.50;99.90;12.50;101049.00;;;;5035531;27;89224;-73
2022/01/01 04:42:35;;;;;;;4.37;2.37;;;12.50;99.90;12.50;101041.00;;;;5019182;27;88060;-71
2022/01/01 04:45:01;;;;;;;2.93;2.10;;;12.50;99.90;12.40;101050.00;;;;5035971;27;97289;-71
2022/01/01 04:47:27;;;;;;;2.33;2.00;;;12.50;99.90;12.40;101059.00;;;;5035449;27;88116;-70
2022/01/01 04:49:53;;;;;;;3.63;1.87;;;12.50;99.90;12.40;101063.00;;;;5035429;27;88345;-74
2022/01/01 04:52:18;;;;;;;2.73;1.77;;;12.40;99.90;12.30;101058.00;;;;5026633;27;93500;-73
2022/01/01 04:54:44;;;;;;;4.37;2.57;;;12.40;99.90;12.30;101066.00;;;;5035516;27;109071;-70
2022/01/01 04:57:12;;;;;;;4.77;2.23;;;12.30;99.90;12.30;101071.00;;;;5035570;27;87932;-71
2022/01/01 04:59:39;;;;;;;3.43;2.13;;;12.30;99.90;12.30;101062.00;;;;5035175;27;105285;-72
2022/01/01 05:02:05;;;;;;;3.37;2.37;;;12.30;99.90;12.30;101068.00;;;;5026696;27;88981;-72
2022/01/01 05:04:31;;;;;;;2.83;2.10;;;12.30;99.90;12.30;101066.00;;;;5036016;27;87854;-70
2022/01/01 05:06:57;;;;;;;2.67;2.00;;;12.30;99.90;12.30;101079.00;;;;5035445;27;102859;-70
2022/01/01 05:09:24;;;;;;;4.43;2.50;;;12.40;99.90;12.40;101081.00;;;;5034463;27;117194;-69
2022/01/01 05:11:50;;;;;;;1.93;1.70;;;12.30;99.90;12.40;101075.00;;;;5031039;27;88023;-70
2022/01/01 05:14:16;;;;;;;3.87;2.73;;;12.40;99.90;12.40;101072.00;;;;5038724;27;87680;-71
2022/01/01 05:16:42;;;;;;;4.20;2.10;;;12.40;99.90;12.40;101070.00;;;;5020502;27;88217;-72
2022/01/01 05:19:08;;;;;;;5.23;2.83;;;12.50;99.90;12.50;101078.00;;;;5039460;27;87043;-70
2022/01/01 05:21:36;;;;;;;2.57;2.10;;;12.50;99.90;12.40;101090.00;;;;5028361;27;87721;-72
2022/01/01 05:24:05;;;;;;;2.80;2.23;;;12.40;99.90;12.50;101088.00;;;;5034779;27;87825;-71
2022/01/01 05:26:35;;;;;;;6.20;2.83;;;12.50;99.90;12.50;101100.00;;;;5038501;27;89065;-74
2022/01/01 05:29:00;;;;;;;5.77;2.53;;;12.50;99.90;12.50;101086.00;;;;5019999;27;89546;-70
2022/01/01 05:31:27;;;;;;;3.83;2.57;;;12.50;99.90;12.50;101087.00;;;;5030041;27;87940;-74
2022/01/01 05:33:55;;;;;;;2.27;2.07;;;12.50;99.90;12.50;101073.00;;;;5032055;27;87995;-71
2022/01/01 05:36:20;;;;;;;3.73;2.70;;;12.50;99.90;12.50;101084.00;;;;5038549;27;89098;-70
2022/01/01 05:38:46;;;;;;;3.63;2.50;;;12.50;99.90;12.50;101081.00;;;;5038214;27;108616;-71
2022/01/01 05:41:13;;;;;;;6.67;2.17;;;12.50;99.90;12.50;101081.00;;;;5032883;27;108951;-69
2022/01/01 05:43:39;;;;;;;3.50;2.77;;;12.50;99.90;12.50;101084.00;;;;5014745;27;86975;-69
2022/01/01 05:46:05;;;;;;;4.33;2.63;;;12.50;99.90;12.40;101091.00;;;;5038107;27;88920;-69
2022/01/01 05:48:32;;;;;;;6.67;2.23;;;12.40;99.90;12.40;101088.00;;;;5037292;27;113679;-70
2022/01/01 05:50:58;;;;;;;3.40;2.60;;;12.40;99.90;12.40;101086.00;;;;5018486;27;88779;-70
2022/01/01 05:53:24;;;;;;;2.07;1.87;;;12.70;99.90;12.40;101083.00;;;;5012278;27;87826;-71
2022/01/01 05:55:49;;;;;;;3.40;2.23;;;12.40;99.90;12.40;101099.00;;;;5019042;27;116946;-71
2022/01/01 05:58:16;;;;;;;4.47;2.83;;;12.50;99.90;12.50;101101.00;;;;5037857;27;92494;-70
2022/01/01 06:00:42;;;;;;;3.20;2.30;;;12.50;99.90;12.50;101103.00;;;;5038416;27;90066;-70
2022/01/01 06:03:08;;;;;;;2.20;2.00;;;12.50;99.90;12.50;101089.00;;;;5021757;27;90186;-70
2022/01/01 06:05:34;;;;;;;3.00;2.50;;;12.40;99.90;12.50;101095.00;;;;5038725;27;88559;-70
2022/01/01 06:08:00;;;;;;;4.90;2.77;;;12.40;99.90;12.50;101093.00;;;;5038472;27;90719;-71
2022/01/01 06:10:27;;;;;;;3.27;2.40;;;12.50;99.90;12.50;101102.00;;;;5038387;27;87632;-70
2022/01/01 06:12:53;;;;;;;2.10;1.73;;;12.40;99.90;12.50;101106.00;;;;5007475;27;87781;-70
2022/01/01 06:15:19;;;;;;;2.73;2.23;;;12.50;99.90;12.50;101109.00;;;;5016021;27;90297;-70
2022/01/01 06:17:45;;;;;;;3.13;1.83;;;12.50;99.90;12.50;101115.00;;;;5015153;27;89611;-70
2022/01/01 06:20:12;;;;;;;3.13;2.47;;;12.50;99.90;12.40;101111.00;;;;5037110;27;87660;-69
2022/01/01 06:22:37;;;;;;;5.30;2.73;;;12.40;99.90;12.40;101119.00;;;;5027711;27;110209;-70
2022/01/01 06:25:04;;;;;;;3.37;2.03;;;12.40;99.90;12.40;101122.00;;;;5038302;27;87824;-70
2022/01/01 06:27:30;;;;;;;4.17;1.93;;;12.40;99.90;12.40;101124.00;;;;5036759;27;103969;-70
2022/01/01 06:29:56;;;;;;;2.73;2.00;;;12.40;99.90;12.40;101140.00;;;;5037337;27;110684;-70
2022/01/01 06:32:21;;;;;;;2.33;1.77;;;12.40;99.90;12.40;101140.00;;;;5009896;27;109309;-71
2022/01/01 06:34:47;;;;;;;4.10;2.53;;;12.40;99.90;12.40;101140.00;;;;5018420;27;118528;-72
2022/01/01 06:37:13;;;;;;;4.33;2.70;;;12.50;99.90;12.40;101142.00;;;;5036457;27;117904;-71
2022/01/01 06:39:39;;;;;;;3.40;2.23;;;12.40;99.90;12.40;101134.00;;;;5037538;27;88646;-71
2022/01/01 06:42:05;;;;;;;3.67;2.00;;;12.40;99.90;12.40;101148.00;;;;5023303;27;109053;-71
2022/01/01 06:44:30;;;;;;;3.03;2.10;;;12.40;99.90;12.40;101150.00;;;;5037310;27;95496;-73
2022/01/01 06:46:56;;;;;;;5.17;2.20;;;12.50;99.90;12.40;101153.00;;;;5036480;27;117858;-72
2022/01/01 06:49:22;;;;;;;2.67;2.33;;;12.50;99.90;12.50;101154.00;;;;5036981;27;105906;-71
2022/01/01 06:51:48;;;;;;;3.93;2.07;;;12.40;99.90;12.40;101142.00;;;;5029417;27;92327;-72
2022/01/01 06:54:13;;;;;;;3.10;2.00;;;12.40;99.90;12.40;101138.00;;;;5036951;27;97875;-71
2022/01/01 06:56:39;;;;;;;3.40;2.27;;;12.40;99.90;12.40;101161.00;;;;5018853;27;88629;-73
2022/01/01 06:59:05;;;;;;;2.63;1.80;;;12.40;99.90;12.40;101164.00;;;;5018573;27;87851;-72
2022/01/01 07:01:30;;;;;;;4.10;2.07;;;12.40;99.90;12.40;101169.00;;;;5027498;27;87702;-70
2022/01/01 07:03:56;;;;;;;3.43;2.63;;;12.40;99.90;12.40;101178.00;;;;5029680;27;97080;-72
2022/01/01 07:06:22;;;;;;;6.50;2.77;;;12.40;99.90;12.40;101169.00;;;;5036735;27;109487;-71
2022/01/01 07:08:48;;;;;;;4.67;2.40;;;12.50;99.90;12.40;101165.00;;;;5036521;27;108647;-71
2022/01/01 07:11:14;;;;;;;3.70;2.40;;;12.40;99.90;12.40;101168.00;;;;5033094;27;87813;-72
2022/01/01 07:13:39;;;;;;;4.87;2.00;;;12.40;99.90;12.40;101166.00;;;;5014406;27;88539;-72
2022/01/01 07:16:06;;;;;;;3.13;2.07;;;12.40;99.90;12.50;101178.00;;;;5034323;27;117226;-71
2022/01/01 07:18:32;;;;;;;4.30;2.27;;;12.50;99.90;12.40;101161.00;;;;5036831;27;89754;-71
2022/01/01 07:20:57;;;;;;;2.80;2.13;;;12.40;99.90;12.40;101169.00;;;;5017198;27;86933;-71
2022/01/01 07:23:23;;;;;;;2.77;1.87;;;12.30;99.90;12.40;101177.00;;;;5020782;27;116806;-74
2022/01/01 07:25:49;;;;;;;1.50;1.37;;;12.40;99.90;12.40;101175.00;;;;5035911;27;117549;-71
2022/01/01 07:28:16;;;;;;;2.57;2.20;;;12.40;99.90;12.40;101179.00;;;;5016625;27;111456;-71
2022/01/01 07:30:43;;;;;;;4.80;1.83;;;12.40;99.90;12.40;101175.00;;;;5037619;27;87877;-71
2022/01/01 07:33:13;;;;;;;4.50;2.40;;;12.40;99.90;12.40;101171.00;;;;5008818;27;88000;-69
2022/01/01 07:35:39;;;;;;;2.17;1.77;;;12.40;99.90;12.40;101178.00;;;;5037118;27;88970;-70
2022/01/01 07:38:05;;;;;;;2.40;1.90;;;12.50;99.90;12.40;101179.00;;;;5037457;27;88012;-70
2022/01/01 07:40:34;;;;;;;3.43;2.17;;;12.40;99.90;12.40;101179.00;;;;5037182;27;94232;-70
2022/01/01 07:43:01;;;;;;;2.97;2.43;;;12.40;99.90;12.50;101183.00;;;;5026332;27;89913;-69
2022/01/01 07:45:27;;;;;;;2.97;2.57;;;12.40;99.90;12.50;101186.00;;;;5018360;27;88130;-70
2022/01/01 07:47:53;;;;;;;2.23;2.03;;;12.40;99.90;12.50;101191.00;;;;5035664;27;111011;-70
2022/01/01 07:50:19;;;;;;;3.23;2.30;;;12.40;99.90;12.50;101191.00;;;;5017371;27;101051;-70
2022/01/01 07:52:44;;;;;;;2.13;1.80;;;12.40;99.90;12.50;101196.00;;;;5018470;27;103444;-72
2022/01/01 07:55:11;;;;;;;2.53;1.77;;;12.50;99.90;12.50;101200.00;;;;5036502;27;89073;-69
2022/01/01 07:57:36;;;;;;;2.80;1.67;;;12.90;99.90;12.60;101208.00;;;;5036036;27;87741;-70
2022/01/01 08:00:06;;;;;;;4.97;1.60;;;12.50;99.90;12.60;101211.00;;;;5035638;27;109892;-70
2022/01/01 08:02:38;;;;;;;3.97;2.00;;;12.50;99.90;12.60;101205.00;;;;5019478;27;88883;-70
2022/01/01 08:05:04;;;;;;;1.47;1.30;;;12.60;99.90;12.60;101208.00;;;;5018158;27;99050;-70
2022/01/01 08:07:30;;;;;;;5.27;1.57;;;12.60;99.90;12.70;101200.00;;;;5035824;27;94135;-70
2022/01/01 08:09:55;;;;;;;3.20;2.10;;;12.70;99.90;12.70;101208.00;;;;5036154;27;109210;-72
2022/01/01 08:12:21;;;;;;;1.70;1.20;;;12.70;99.90;12.70;101210.00;;;;5003492;27;117063;-69
2022/01/01 08:14:47;;;;;;;1.60;1.30;;;12.70;99.90;12.80;101215.00;;;;5012944;27;116565;-70
2022/01/01 08:17:12;;;;;;;3.97;1.80;;;12.70;99.90;12.80;101211.00;;;;5034141;27;96464;-69
2022/01/01 08:19:38;;;;;;;2.80;1.73;;;12.70;99.90;12.80;101208.00;;;;5035278;27;109282;-70
2022/01/01 08:22:04;;;;;;;0.90;0.83;;;12.80;99.90;12.80;101212.00;;;;5016590;27;88534;-70
2022/01/01 08:24:30;;;;;;;1.10;1.00;;;12.80;99.90;12.90;101213.00;;;;5021198;27;110513;-71
2022/01/01 08:26:56;;;;;;;1.77;1.00;;;12.80;99.90;12.90;101217.00;;;;5032264;27;111701;-70
2022/01/01 08:29:21;;;;;;;2.43;1.63;;;12.80;99.90;12.90;101218.00;;;;5032592;27;93630;-70
2022/01/01 08:31:47;;;;;;;2.73;1.50;;;12.90;99.90;12.90;101223.00;;;;5025927;27;87923;-71
2022/01/01 08:34:13;;;;;;;2.03;1.63;;;12.90;99.90;13.00;101223.00;;;;5030489;27;116735;-72
2022/01/01 08:36:39;;;;;;;2.43;1.53;;;13.00;99.90;13.00;101231.00;;;;5031053;27;110443;-70
2022/01/01 08:39:06;;;;;;;1.70;1.47;;;12.90;99.90;13.00;101226.00;;;;5032505;27;88197;-70
2022/01/01 08:41:32;;;;;;;1.70;1.30;;;13.00;99.90;13.00;101224.00;;;;5027170;27;89971;-71
2022/01/01 08:43:58;;;;;;;3.07;1.77;;;13.00;99.90;13.00;101217.00;;;;5002905;27;90061;-71
2022/01/01 08:46:24;;;;;;;2.60;1.73;;;13.00;99.90;13.00;101234.00;;;;5031061;27;110938;-71
2022/01/01 08:48:49;;;;;;;3.93;1.87;;;13.00;99.90;13.10;101230.00;;;;5031817;27;107941;-73
2022/01/01 08:51:21;;;;;;;2.07;1.40;;;13.10;99.90;13.10;101233.00;;;;5028544;27;117714;-72
2022/01/01 08:53:49;;;;;;;3.80;1.80;;;13.10;99.90;13.10;101230.00;;;;5010711;27;87962;-73
2022/01/01 08:56:15;;;;;;;1.90;1.40;;;13.10;99.90;13.20;101248.00;;;;5031370;27;98337;-73
2022/01/01 08:58:41;;;;;;;2.87;1.63;;;13.10;99.90;13.20;101247.00;;;;5033253;27;87038;-73
2022/01/01 09:01:08;;;;;;;2.13;1.50;;;13.10;99.90;13.20;101249.00;;;;5028847;27;118463;-71
2022/01/01 09:03:35;;;;;;;2.33;1.60;;;13.20;99.90;13.20;101247.00;;;;5019572;27;89680;-72
2022/01/01 09:06:05;;;;;;;2.50;1.30;;;13.20;99.90;13.20;101255.00;;;;4998123;27;88685;-71
2022/01/01 09:08:39;;;;;;;3.57;2.07;;;13.20;99.90;13.30;101258.00;;;;5014335;27;88196;-72
2022/01/01 09:11:05;;;;;;;2.20;1.80;;;13.20;99.90;13.30;101251.00;;;;5031979;27;88587;-71
2022/01/01 09:13:31;;;;;;;2.40;1.67;;;13.30;99.90;13.30;101259.00;;;;5032164;27;88237;-71
2022/01/01 09:15:57;;;;;;;3.77;1.70;;;13.20;99.90;13.40;101264.00;;;;5032435;27;92453;-72
2022/01/01 09:18:23;;;;;;;2.13;1.67;;;13.30;99.90;13.40;101267.00;;;;5032266;27;87707;-70
2022/01/01 09:20:48;;;;;;;1.80;1.43;;;13.30;99.90;13.40;101265.00;;;;5012895;27;104254;-71
2022/01/01 09:23:15;;;;;;;2.50;1.40;;;13.40;99.90;13.50;101265.00;;;;5022665;27;117852;-71
2022/01/01 09:25:41;;;;;;;4.87;2.20;;;13.40;99.90;13.50;101271.00;;;;5031312;27;87840;-72
2022/01/01 09:28:07;;;;;;;6.00;1.60;;;13.40;99.90;13.50;101275.00;;;;5032527;27;87752;-70
2022/01/01 09:30:33;;;;;;;2.37;1.53;;;13.40;99.90;13.50;101289.00;;;;5011413;27;103514;-72
2022/01/01 09:32:59;;;;;;;2.47;1.43;;;13.40;99.90;13.50;101283.00;;;;5023422;27;100035;-71
2022/01/01 09:35:25;;;;;;;2.80;1.43;;;13.40;99.90;13.50;101298.00;;;;5022065;27;96932;-70
2022/01/01 09:37:51;;;;;;;2.17;1.50;;;13.50;99.90;13.50;101303.00;;;;5025532;27;108605;-72
2022/01/01 09:40:17;;;;;;;2.70;1.93;;;13.50;99.90;13.50;101306.00;;;;5030778;27;117442;-71
2022/01/01 09:42:44;;;;;;;4.90;2.33;;;13.50;99.90;13.50;101305.00;;;;5023184;27;87987;-72
2022/01/01 09:45:10;;;;;;;1.80;1.50;;;13.50;99.90;13.50;101298.00;;;;5031936;27;87929;-71
2022/01/01 09:47:40;;;;;;;6.00;2.03;;;13.70;99.90;13.50;101314.00;;;;5025000;27;97049;-71
2022/01/01 09:50:08;;;;;;;2.13;1.50;;;13.40;99.90;13.50;101302.00;;;;5011405;27;117302;-71
2022/01/01 09:52:34;;;;;;;1.97;1.47;;;13.40;99.90;13.50;101308.00;;;;5008686;27;88290;-72
2022/01/01 09:55:00;;;;;;;2.17;1.53;;;13.50;99.90;13.50;101314.00;;;;5028675;27;88814;-72
2022/01/01 09:57:25;;;;;;;2.97;1.60;;;13.50;99.90;13.50;101311.00;;;;5014728;27;91609;-72
2022/01/01 09:59:51;;;;;;;2.30;1.40;;;13.50;99.90;13.50;101333.00;;;;5034510;27;117942;-72
2022/01/01 10:02:17;;;;;;;2.40;1.47;;;13.50;99.90;13.50;101339.00;;;;5026549;27;87945;-73
2022/01/01 10:04:50;;;;;;;1.77;1.37;;;13.50;99.90;13.50;101334.00;;;;5016578;27;87654;-72
2022/01/01 10:07:16;;;;;;;3.23;2.10;;;13.50;99.90;13.50;101335.00;;;;5034923;27;87671;-70
2022/01/01 10:09:42;;;;;;;1.97;1.73;;;13.50;99.90;13.50;101333.00;;;;5021389;27;118573;-71
2022/01/01 10:12:14;;;;;;;2.50;1.90;;;13.50;99.90;13.50;101334.00;;;;5014572;27;116924;-71
2022/01/01 10:14:43;;;;;;;6.17;2.13;;;13.50;99.90;13.50;101335.00;;;;5035377;27;87810;-72
2022/01/01 10:17:14;;;;;;;3.07;2.10;;;13.50;99.90;13.50;101325.00;;;;5034860;27;95144;-71
2022/01/01 10:19:40;;;;;;;3.00;1.80;;;13.50;99.90;13.50;101337.00;;;;5033748;27;90172;-72
2022/01/01 10:22:11;;;;;;;1.97;1.37;;;13.50;99.90;13.60;101331.00;;;;5019163;27;88807;-71
2022/01/01 10:27:42;;;;;;;2.23;1.33;;;13.50;99.90;13.60;101333.00;;;;5035621;27;87736;-70
2022/01/01 10:30:23;;;;;;;5.37;1.97;;;13.50;99.90;13.60;101347.00;;;;5031669;27;87804;-70
2022/01/01 10:33:06;;;;;;;2.47;1.77;;;13.50;99.90;13.60;101348.00;;;;5026125;27;87945;-72
2022/01/01 10:35:47;;;;;;;3.90;1.13;;;13.50;99.90;13.60;101336.00;;;;5034706;27;87735;-72
2022/01/01 10:38:28;;;;;;;2.07;1.33;;;13.60;99.90;13.60;101342.00;;;;5035145;27;87122;-72
2022/01/01 10:41:03;;;;;;;7.37;1.30;;;13.50;99.90;13.60;101337.00;;;;5034573;27;89042;-71
2022/01/01 10:43:41;;;;;;;4.07;2.13;;;13.60;99.90;13.60;101347.00;;;;5034330;27;87953;-70
2022/01/01 10:46:15;;;;;;;1.93;1.60;;;13.50;99.90;13.60;101337.00;;;;5015009;27;88756;-70